sensor_id;sensor_type;location;lat;lon;timestamp;P1;durP1;ratioP1;P2;durP2;ratioP2
6031;SDS011;3044;43.232;27.972;2023-02-15T00:00:36;16.97;;;11.70;;
6031;SDS011;3044;43.232;27.972;2023-02-15T00:03:04;15.47;;;10.17;;
6031;SDS011;3044;43.232;27.972;2023-02-15T00:05:31;14.63;;;10.40;;
6031;SDS011;3044;43.232;27.972;2023-02-15T00:07:58;22.50;;;11.03;;
6031;SDS011;3044;43.232;27.972;2023-02-15T00:10:25;14.63;;;11.40;;
6031;SDS011;3044;43.232;27.972;2023-02-15T00:12:53;17.70;;;11.80;;
6031;SDS011;3044;43.232;27.972;2023-02-15T00:15:20;13.47;;;10.33;;
6031;SDS011;3044;43.232;27.972;2023-02-15T00:17:47;17.03;;;10.77;;
6031;SDS011;3044;43.232;27.972;2023-02-15T00:20:15;18.20;;;12.50;;
6031;SDS011;3044;43.232;27.972;2023-02-15T00:22:43;16.30;;;12.53;;
6031;SDS011;3044;43.232;27.972;2023-02-15T00:25:10;20.40;;;11.50;;
6031;SDS011;3044;43.232;27.972;2023-02-15T00:27:37;18.50;;;12.93;;
6031;SDS011;3044;43.232;27.972;2023-02-15T00:30:05;19.23;;;11.23;;
6031;SDS011;3044;43.232;27.972;2023-02-15T00:32:33;15.03;;;11.33;;
6031;SDS011;3044;43.232;27.972;2023-02-15T00:35:00;16.47;;;11.67;;
6031;SDS011;3044;43.232;27.972;2023-02-15T00:37:29;24.23;;;11.70;;
6031;SDS011;3044;43.232;27.972;2023-02-15T00:39:56;19.50;;;12.43;;
6031;SDS011;3044;43.232;27.972;2023-02-15T00:42:23;19.90;;;11.67;;
6031;SDS011;3044;43.232;27.972;2023-02-15T00:44:50;16.17;;;11.23;;
6031;SDS011;3044;43.232;27.972;2023-02-15T00:47:17;18.50;;;11.43;;
6031;SDS011;3044;43.232;27.972;2023-02-15T00:49:44;18.80;;;12.20;;
6031;SDS011;3044;43.232;27.972;2023-02-15T00:52:11;22.47;;;11.57;;
6031;SDS011;3044;43.232;27.972;2023-02-15T00:54:40;20.53;;;11.83;;
6031;SDS011;3044;43.232;27.972;2023-02-15T00:57:07;21.03;;;12.30;;
6031;SDS011;3044;43.232;27.972;2023-02-15T00:59:34;20.23;;;10.60;;
6031;SDS011;3044;43.232;27.972;2023-02-15T01:02:01;17.13;;;11.80;;
6031;SDS011;3044;43.232;27.972;2023-02-15T01:04:28;13.60;;;10.30;;
6031;SDS011;3044;43.232;27.972;2023-02-15T01:06:56;26.47;;;12.70;;
6031;SDS011;3044;43.232;27.972;2023-02-15T01:09:23;17.67;;;12.80;;
6031;SDS011;3044;43.232;27.972;2023-02-15T01:11:52;16.43;;;11.43;;
6031;SDS011;3044;43.232;27.972;2023-02-15T01:14:19;21.17;;;12.30;;
6031;SDS011;3044;43.232;27.972;2023-02-15T01:16:46;16.17;;;11.40;;
6031;SDS011;3044;43.232;27.972;2023-02-15T01:19:13;24.70;;;13.10;;
6031;SDS011;3044;43.232;27.972;2023-02-15T01:21:40;19.77;;;12.73;;
6031;SDS011;3044;43.232;27.972;2023-02-15T01:24:10;17.73;;;11.07;;
6031;SDS011;3044;43.232;27.972;2023-02-15T01:26:38;18.97;;;12.50;;
6031;SDS011;3044;43.232;27.972;2023-02-15T01:29:07;15.00;;;11.07;;
6031;SDS011;3044;43.232;27.972;2023-02-15T01:31:34;20.17;;;12.20;;
6031;SDS011;3044;43.232;27.972;2023-02-15T01:34:03;25.60;;;13.07;;
6031;SDS011;3044;43.232;27.972;2023-02-15T01:36:31;16.53;;;11.40;;
6031;SDS011;3044;43.232;27.972;2023-02-15T01:39:00;21.37;;;11.77;;
6031;SDS011;3044;43.232;27.972;2023-02-15T01:41:27;24.77;;;11.90;;
6031;SDS011;3044;43.232;27.972;2023-02-15T01:43:55;20.17;;;12.37;;
6031;SDS011;3044;43.232;27.972;2023-02-15T01:46:26;20.20;;;12.27;;
6031;SDS011;3044;43.232;27.972;2023-02-15T01:49:00;22.33;;;12.13;;
6031;SDS011;3044;43.232;27.972;2023-02-15T01:51:33;25.27;;;12.30;;
6031;SDS011;3044;43.232;27.972;2023-02-15T01:54:05;17.70;;;11.70;;
6031;SDS011;3044;43.232;27.972;2023-02-15T01:56:37;16.33;;;11.10;;
6031;SDS011;3044;43.232;27.972;2023-02-15T01:59:06;18.87;;;11.73;;
6031;SDS011;3044;43.232;27.972;2023-02-15T02:01:39;18.07;;;11.40;;
6031;SDS011;3044;43.232;27.972;2023-02-15T02:04:09;21.10;;;12.83;;
6031;SDS011;3044;43.232;27.972;2023-02-15T02:06:41;16.67;;;10.97;;
6031;SDS011;3044;43.232;27.972;2023-02-15T02:09:10;22.93;;;11.57;;
6031;SDS011;3044;43.232;27.972;2023-02-15T02:11:38;22.90;;;11.97;;
6031;SDS011;3044;43.232;27.972;2023-02-15T02:14:06;19.10;;;12.63;;
6031;SDS011;3044;43.232;27.972;2023-02-15T02:16:36;23.57;;;12.60;;
6031;SDS011;3044;43.232;27.972;2023-02-15T02:19:17;22.40;;;12.17;;
6031;SDS011;3044;43.232;27.972;2023-02-15T02:25:08;16.30;;;11.53;;
6031;SDS011;3044;43.232;27.972;2023-02-15T02:27:48;20.87;;;13.70;;
6031;SDS011;3044;43.232;27.972;2023-02-15T02:33:41;23.70;;;12.60;;
6031;SDS011;3044;43.232;27.972;2023-02-15T02:36:19;20.50;;;11.30;;
6031;SDS011;3044;43.232;27.972;2023-02-15T02:38:55;20.67;;;12.50;;
6031;SDS011;3044;43.232;27.972;2023-02-15T02:41:35;17.40;;;11.00;;
6031;SDS011;3044;43.232;27.972;2023-02-15T02:44:10;15.07;;;10.93;;
6031;SDS011;3044;43.232;27.972;2023-02-15T02:46:45;20.20;;;11.97;;
6031;SDS011;3044;43.232;27.972;2023-02-15T02:49:20;19.80;;;11.30;;
6031;SDS011;3044;43.232;27.972;2023-02-15T02:51:58;19.80;;;12.20;;
6031;SDS011;3044;43.232;27.972;2023-02-15T02:54:26;23.13;;;12.30;;
6031;SDS011;3044;43.232;27.972;2023-02-15T02:56:55;18.47;;;11.20;;
6031;SDS011;3044;43.232;27.972;2023-02-15T02:59:26;16.20;;;11.27;;
6031;SDS011;3044;43.232;27.972;2023-02-15T03:01:57;18.63;;;12.73;;
6031;SDS011;3044;43.232;27.972;2023-02-15T03:04:35;36.93;;;11.20;;
6031;SDS011;3044;43.232;27.972;2023-02-15T03:07:04;19.67;;;10.70;;
6031;SDS011;3044;43.232;27.972;2023-02-15T03:09:37;19.07;;;10.87;;
6031;SDS011;3044;43.232;27.972;2023-02-15T03:12:08;18.20;;;10.87;;
6031;SDS011;3044;43.232;27.972;2023-02-15T03:14:37;18.20;;;11.17;;
6031;SDS011;3044;43.232;27.972;2023-02-15T03:17:05;18.53;;;10.80;;
6031;SDS011;3044;43.232;27.972;2023-02-15T03:19:36;17.40;;;10.90;;
6031;SDS011;3044;43.232;27.972;2023-02-15T03:22:06;22.07;;;11.93;;
6031;SDS011;3044;43.232;27.972;2023-02-15T03:24:40;21.40;;;12.37;;
6031;SDS011;3044;43.232;27.972;2023-02-15T03:27:11;14.17;;;9.50;;
6031;SDS011;3044;43.232;27.972;2023-02-15T03:29:44;21.40;;;10.53;;
6031;SDS011;3044;43.232;27.972;2023-02-15T03:32:15;19.30;;;10.60;;
6031;SDS011;3044;43.232;27.972;2023-02-15T03:34:44;19.70;;;10.70;;
6031;SDS011;3044;43.232;27.972;2023-02-15T03:37:13;18.17;;;10.40;;
6031;SDS011;3044;43.232;27.972;2023-02-15T03:39:48;15.30;;;10.10;;
6031;SDS011;3044;43.232;27.972;2023-02-15T03:42:22;18.00;;;10.37;;
6031;SDS011;3044;43.232;27.972;2023-02-15T03:44:55;14.50;;;10.40;;
6031;SDS011;3044;43.232;27.972;2023-02-15T03:47:25;15.37;;;10.67;;
6031;SDS011;3044;43.232;27.972;2023-02-15T03:49:59;21.97;;;13.17;;
6031;SDS011;3044;43.232;27.972;2023-02-15T03:52:50;19.87;;;11.23;;
6031;SDS011;3044;43.232;27.972;2023-02-15T03:55:18;20.70;;;11.70;;
6031;SDS011;3044;43.232;27.972;2023-02-15T03:57:45;19.40;;;11.37;;
6031;SDS011;3044;43.232;27.972;2023-02-15T04:00:29;18.60;;;11.27;;
6031;SDS011;3044;43.232;27.972;2023-02-15T04:03:22;17.93;;;11.63;;
6031;SDS011;3044;43.232;27.972;2023-02-15T04:05:54;20.07;;;10.07;;
6031;SDS011;3044;43.232;27.972;2023-02-15T04:08:21;14.67;;;10.50;;
6031;SDS011;3044;43.232;27.972;2023-02-15T04:11:09;28.80;;;11.73;;
6031;SDS011;3044;43.232;27.972;2023-02-15T04:13:35;19.77;;;11.63;;
6031;SDS011;3044;43.232;27.972;2023-02-15T04:16:02;21.50;;;11.43;;
6031;SDS011;3044;43.232;27.972;2023-02-15T04:18:29;25.27;;;13.27;;
6031;SDS011;3044;43.232;27.972;2023-02-15T04:21:16;14.67;;;10.57;;
6031;SDS011;3044;43.232;27.972;2023-02-15T04:24:01;15.73;;;10.73;;
6031;SDS011;3044;43.232;27.972;2023-02-15T04:26:45;18.60;;;11.03;;
6031;SDS011;3044;43.232;27.972;2023-02-15T04:29:18;20.20;;;11.57;;
6031;SDS011;3044;43.232;27.972;2023-02-15T04:31:46;18.00;;;10.70;;
6031;SDS011;3044;43.232;27.972;2023-02-15T04:34:13;16.10;;;10.00;;
6031;SDS011;3044;43.232;27.972;2023-02-15T04:36:42;18.80;;;11.40;;
6031;SDS011;3044;43.232;27.972;2023-02-15T04:39:09;16.50;;;11.83;;
6031;SDS011;3044;43.232;27.972;2023-02-15T04:41:39;16.90;;;9.63;;
6031;SDS011;3044;43.232;27.972;2023-02-15T04:44:07;17.67;;;12.10;;
6031;SDS011;3044;43.232;27.972;2023-02-15T04:46:34;15.43;;;10.20;;
6031;SDS011;3044;43.232;27.972;2023-02-15T04:49:01;19.97;;;11.60;;
6031;SDS011;3044;43.232;27.972;2023-02-15T04:51:28;18.53;;;10.47;;
6031;SDS011;3044;43.232;27.972;2023-02-15T04:53:57;21.43;;;10.90;;
6031;SDS011;3044;43.232;27.972;2023-02-15T04:56:24;19.70;;;11.47;;
6031;SDS011;3044;43.232;27.972;2023-02-15T04:58:51;17.00;;;10.70;;
6031;SDS011;3044;43.232;27.972;2023-02-15T05:01:18;16.77;;;10.97;;
6031;SDS011;3044;43.232;27.972;2023-02-15T05:03:46;17.33;;;11.20;;
6031;SDS011;3044;43.232;27.972;2023-02-15T05:06:13;17.13;;;11.13;;
6031;SDS011;3044;43.232;27.972;2023-02-15T05:08:40;19.33;;;10.90;;
6031;SDS011;3044;43.232;27.972;2023-02-15T05:11:08;15.80;;;11.10;;
6031;SDS011;3044;43.232;27.972;2023-02-15T05:13:35;19.17;;;11.03;;
6031;SDS011;3044;43.232;27.972;2023-02-15T05:16:02;16.70;;;11.17;;
6031;SDS011;3044;43.232;27.972;2023-02-15T05:18:30;17.00;;;10.70;;
6031;SDS011;3044;43.232;27.972;2023-02-15T05:20:57;15.73;;;9.80;;
6031;SDS011;3044;43.232;27.972;2023-02-15T05:23:24;19.93;;;11.43;;
6031;SDS011;3044;43.232;27.972;2023-02-15T05:25:51;17.73;;;10.97;;
6031;SDS011;3044;43.232;27.972;2023-02-15T05:28:37;17.50;;;10.67;;
6031;SDS011;3044;43.232;27.972;2023-02-15T05:31:05;20.53;;;11.07;;
6031;SDS011;3044;43.232;27.972;2023-02-15T05:33:34;16.43;;;10.30;;
6031;SDS011;3044;43.232;27.972;2023-02-15T05:36:01;17.13;;;10.07;;
6031;SDS011;3044;43.232;27.972;2023-02-15T05:38:29;19.43;;;10.90;;
6031;SDS011;3044;43.232;27.972;2023-02-15T05:40:56;20.80;;;12.13;;
6031;SDS011;3044;43.232;27.972;2023-02-15T05:43:24;13.97;;;10.83;;
6031;SDS011;3044;43.232;27.972;2023-02-15T05:45:53;16.47;;;10.80;;
6031;SDS011;3044;43.232;27.972;2023-02-15T05:48:24;15.90;;;10.67;;
6031;SDS011;3044;43.232;27.972;2023-02-15T05:50:59;15.23;;;10.17;;
6031;SDS011;3044;43.232;27.972;2023-02-15T05:53:27;21.13;;;10.50;;
6031;SDS011;3044;43.232;27.972;2023-02-15T05:55:55;18.90;;;10.30;;
6031;SDS011;3044;43.232;27.972;2023-02-15T05:58:24;14.90;;;10.40;;
6031;SDS011;3044;43.232;27.972;2023-02-15T06:00:53;19.80;;;11.00;;
6031;SDS011;3044;43.232;27.972;2023-02-15T06:03:21;15.10;;;9.93;;
6031;SDS011;3044;43.232;27.972;2023-02-15T06:05:48;15.37;;;9.93;;
6031;SDS011;3044;43.232;27.972;2023-02-15T06:08:15;20.57;;;12.27;;
6031;SDS011;3044;43.232;27.972;2023-02-15T06:10:43;21.83;;;11.83;;
6031;SDS011;3044;43.232;27.972;2023-02-15T06:13:11;15.93;;;10.70;;
6031;SDS011;3044;43.232;27.972;2023-02-15T06:15:38;24.77;;;10.77;;
6031;SDS011;3044;43.232;27.972;2023-02-15T06:18:07;17.07;;;10.30;;
6031;SDS011;3044;43.232;27.972;2023-02-15T06:20:34;17.57;;;11.20;;
6031;SDS011;3044;43.232;27.972;2023-02-15T06:23:01;15.13;;;9.10;;
6031;SDS011;3044;43.232;27.972;2023-02-15T06:25:28;14.93;;;10.60;;
6031;SDS011;3044;43.232;27.972;2023-02-15T06:27:55;21.63;;;11.23;;
6031;SDS011;3044;43.232;27.972;2023-02-15T06:30:22;17.27;;;10.93;;
6031;SDS011;3044;43.232;27.972;2023-02-15T06:32:50;16.97;;;10.63;;
6031;SDS011;3044;43.232;27.972;2023-02-15T06:35:18;17.57;;;10.30;;
6031;SDS011;3044;43.232;27.972;2023-02-15T06:37:47;17.53;;;10.43;;
6031;SDS011;3044;43.232;27.972;2023-02-15T06:40:14;15.30;;;10.20;;
6031;SDS011;3044;43.232;27.972;2023-02-15T06:42:42;17.63;;;10.60;;
6031;SDS011;3044;43.232;27.972;2023-02-15T06:45:09;19.57;;;9.60;;
6031;SDS011;3044;43.232;27.972;2023-02-15T06:47:37;12.70;;;9.67;;
6031;SDS011;3044;43.232;27.972;2023-02-15T06:50:05;13.73;;;10.00;;
6031;SDS011;3044;43.232;27.972;2023-02-15T06:52:34;13.87;;;8.80;;
6031;SDS011;3044;43.232;27.972;2023-02-15T06:55:01;14.60;;;9.67;;
6031;SDS011;3044;43.232;27.972;2023-02-15T06:57:29;18.07;;;9.20;;
6031;SDS011;3044;43.232;27.972;2023-02-15T06:59:57;15.27;;;9.60;;
6031;SDS011;3044;43.232;27.972;2023-02-15T07:02:24;11.33;;;8.70;;
6031;SDS011;3044;43.232;27.972;2023-02-15T07:04:51;16.90;;;9.00;;
6031;SDS011;3044;43.232;27.972;2023-02-15T07:07:18;12.10;;;8.33;;
6031;SDS011;3044;43.232;27.972;2023-02-15T07:09:47;15.67;;;9.10;;
6031;SDS011;3044;43.232;27.972;2023-02-15T07:12:14;17.30;;;9.17;;
6031;SDS011;3044;43.232;27.972;2023-02-15T07:14:58;18.40;;;9.87;;
6031;SDS011;3044;43.232;27.972;2023-02-15T07:17:25;15.80;;;9.60;;
6031;SDS011;3044;43.232;27.972;2023-02-15T07:19:53;18.23;;;9.30;;
6031;SDS011;3044;43.232;27.972;2023-02-15T07:22:20;14.27;;;9.03;;
6031;SDS011;3044;43.232;27.972;2023-02-15T07:24:49;17.30;;;8.57;;
6031;SDS011;3044;43.232;27.972;2023-02-15T07:27:19;15.60;;;9.03;;
6031;SDS011;3044;43.232;27.972;2023-02-15T07:29:46;15.30;;;8.17;;
6031;SDS011;3044;43.232;27.972;2023-02-15T07:32:14;11.13;;;8.00;;
6031;SDS011;3044;43.232;27.972;2023-02-15T07:34:41;13.07;;;8.93;;
6031;SDS011;3044;43.232;27.972;2023-02-15T07:37:08;14.80;;;8.50;;
6031;SDS011;3044;43.232;27.972;2023-02-15T07:39:35;12.20;;;8.87;;
6031;SDS011;3044;43.232;27.972;2023-02-15T07:42:03;12.23;;;8.43;;
6031;SDS011;3044;43.232;27.972;2023-02-15T07:44:31;10.40;;;8.73;;
6031;SDS011;3044;43.232;27.972;2023-02-15T07:46:58;13.00;;;8.40;;
6031;SDS011;3044;43.232;27.972;2023-02-15T07:49:25;9.60;;;8.10;;
6031;SDS011;3044;43.232;27.972;2023-02-15T07:51:52;16.57;;;8.60;;
6031;SDS011;3044;43.232;27.972;2023-02-15T07:54:19;19.23;;;9.53;;
6031;SDS011;3044;43.232;27.972;2023-02-15T07:56:46;15.17;;;10.17;;
6031;SDS011;3044;43.232;27.972;2023-02-15T07:59:15;17.80;;;8.63;;
6031;SDS011;3044;43.232;27.972;2023-02-15T08:01:42;15.07;;;9.00;;
6031;SDS011;3044;43.232;27.972;2023-02-15T08:04:09;17.53;;;8.50;;
6031;SDS011;3044;43.232;27.972;2023-02-15T08:06:37;15.70;;;8.60;;
6031;SDS011;3044;43.232;27.972;2023-02-15T08:09:05;13.73;;;9.50;;
6031;SDS011;3044;43.232;27.972;2023-02-15T08:11:33;11.10;;;8.10;;
6031;SDS011;3044;43.232;27.972;2023-02-15T08:14:07;12.63;;;7.73;;
6031;SDS011;3044;43.232;27.972;2023-02-15T08:16:37;11.20;;;7.80;;
6031;SDS011;3044;43.232;27.972;2023-02-15T08:19:06;10.13;;;7.63;;
6031;SDS011;3044;43.232;27.972;2023-02-15T08:21:35;16.10;;;9.03;;
6031;SDS011;3044;43.232;27.972;2023-02-15T08:24:03;11.40;;;8.23;;
6031;SDS011;3044;43.232;27.972;2023-02-15T08:26:31;11.63;;;6.90;;
6031;SDS011;3044;43.232;27.972;2023-02-15T08:29:00;10.13;;;8.30;;
6031;SDS011;3044;43.232;27.972;2023-02-15T08:31:28;17.73;;;9.27;;
6031;SDS011;3044;43.232;27.972;2023-02-15T08:33:57;12.10;;;7.73;;
6031;SDS011;3044;43.232;27.972;2023-02-15T08:36:25;16.43;;;8.70;;
6031;SDS011;3044;43.232;27.972;2023-02-15T08:38:53;12.77;;;7.70;;
6031;SDS011;3044;43.232;27.972;2023-02-15T08:41:22;13.73;;;9.13;;
6031;SDS011;3044;43.232;27.972;2023-02-15T08:43:51;12.30;;;8.40;;
6031;SDS011;3044;43.232;27.972;2023-02-15T08:46:20;12.50;;;8.23;;
6031;SDS011;3044;43.232;27.972;2023-02-15T08:48:49;15.70;;;9.20;;
6031;SDS011;3044;43.232;27.972;2023-02-15T08:51:18;11.27;;;8.50;;
6031;SDS011;3044;43.232;27.972;2023-02-15T08:53:48;13.10;;;8.53;;
6031;SDS011;3044;43.232;27.972;2023-02-15T08:56:16;11.33;;;8.43;;
6031;SDS011;3044;43.232;27.972;2023-02-15T08:58:45;16.00;;;9.20;;
6031;SDS011;3044;43.232;27.972;2023-02-15T09:01:13;15.10;;;8.67;;
6031;SDS011;3044;43.232;27.972;2023-02-15T09:03:45;16.17;;;7.80;;
6031;SDS011;3044;43.232;27.972;2023-02-15T09:06:13;9.67;;;7.60;;
6031;SDS011;3044;43.232;27.972;2023-02-15T09:08:41;13.33;;;8.63;;
6031;SDS011;3044;43.232;27.972;2023-02-15T09:11:09;12.73;;;8.93;;
6031;SDS011;3044;43.232;27.972;2023-02-15T09:13:38;8.73;;;7.07;;
6031;SDS011;3044;43.232;27.972;2023-02-15T09:16:07;19.13;;;8.90;;
6031;SDS011;3044;43.232;27.972;2023-02-15T09:18:36;15.87;;;7.17;;
6031;SDS011;3044;43.232;27.972;2023-02-15T09:21:06;9.73;;;7.00;;
6031;SDS011;3044;43.232;27.972;2023-02-15T09:23:34;11.30;;;7.73;;
6031;SDS011;3044;43.232;27.972;2023-02-15T09:26:07;12.33;;;8.87;;
6031;SDS011;3044;43.232;27.972;2023-02-15T09:28:36;9.70;;;7.83;;
6031;SDS011;3044;43.232;27.972;2023-02-15T09:31:04;10.50;;;8.00;;
6031;SDS011;3044;43.232;27.972;2023-02-15T09:33:34;13.23;;;7.20;;
6031;SDS011;3044;43.232;27.972;2023-02-15T09:36:02;12.00;;;9.47;;
6031;SDS011;3044;43.232;27.972;2023-02-15T09:38:29;12.50;;;7.40;;
6031;SDS011;3044;43.232;27.972;2023-02-15T09:40:58;22.03;;;8.83;;
6031;SDS011;3044;43.232;27.972;2023-02-15T09:43:37;10.50;;;7.70;;
6031;SDS011;3044;43.232;27.972;2023-02-15T09:49:07;10.87;;;6.77;;
6031;SDS011;3044;43.232;27.972;2023-02-15T09:51:48;11.13;;;7.43;;
6031;SDS011;3044;43.232;27.972;2023-02-15T09:57:24;14.97;;;8.23;;
6031;SDS011;3044;43.232;27.972;2023-02-15T10:00:03;10.90;;;8.20;;
6031;SDS011;3044;43.232;27.972;2023-02-15T10:02:38;17.83;;;7.90;;
6031;SDS011;3044;43.232;27.972;2023-02-15T10:05:23;13.73;;;7.63;;
6031;SDS011;3044;43.232;27.972;2023-02-15T10:08:10;8.80;;;7.50;;
6031;SDS011;3044;43.232;27.972;2023-02-15T10:10:53;17.43;;;7.77;;
6031;SDS011;3044;43.232;27.972;2023-02-15T10:13:49;10.67;;;8.40;;
6031;SDS011;3044;43.232;27.972;2023-02-15T10:16:26;10.93;;;7.90;;
6031;SDS011;3044;43.232;27.972;2023-02-15T10:19:03;10.80;;;7.57;;
6031;SDS011;3044;43.232;27.972;2023-02-15T10:21:41;11.93;;;8.83;;
6031;SDS011;3044;43.232;27.972;2023-02-15T10:24:27;11.70;;;8.80;;
6031;SDS011;3044;43.232;27.972;2023-02-15T10:27:12;11.60;;;8.00;;
6031;SDS011;3044;43.232;27.972;2023-02-15T10:29:43;10.83;;;7.47;;
6031;SDS011;3044;43.232;27.972;2023-02-15T10:32:23;10.43;;;7.97;;
6031;SDS011;3044;43.232;27.972;2023-02-15T10:34:54;14.80;;;8.00;;
6031;SDS011;3044;43.232;27.972;2023-02-15T10:40:25;15.47;;;8.97;;
6031;SDS011;3044;43.232;27.972;2023-02-15T10:43:04;14.43;;;9.03;;
6031;SDS011;3044;43.232;27.972;2023-02-15T10:45:43;13.13;;;8.63;;
6031;SDS011;3044;43.232;27.972;2023-02-15T10:48:37;10.70;;;8.10;;
6031;SDS011;3044;43.232;27.972;2023-02-15T10:51:25;12.90;;;9.60;;
6031;SDS011;3044;43.232;27.972;2023-02-15T10:54:14;11.53;;;9.83;;
6031;SDS011;3044;43.232;27.972;2023-02-15T10:56:57;13.60;;;8.47;;
6031;SDS011;3044;43.232;27.972;2023-02-15T10:59:32;11.03;;;9.83;;
6031;SDS011;3044;43.232;27.972;2023-02-15T11:02:16;13.00;;;9.97;;
6031;SDS011;3044;43.232;27.972;2023-02-15T11:04:55;14.00;;;9.90;;
6031;SDS011;3044;43.232;27.972;2023-02-15T11:07:32;14.53;;;9.77;;
6031;SDS011;3044;43.232;27.972;2023-02-15T11:10:05;14.33;;;9.93;;
6031;SDS011;3044;43.232;27.972;2023-02-15T11:12:48;14.53;;;9.90;;
6031;SDS011;3044;43.232;27.972;2023-02-15T11:15:19;15.73;;;9.77;;
6031;SDS011;3044;43.232;27.972;2023-02-15T11:17:52;16.40;;;11.03;;
6031;SDS011;3044;43.232;27.972;2023-02-15T11:20:27;15.87;;;10.60;;
6031;SDS011;3044;43.232;27.972;2023-02-15T11:22:59;13.87;;;8.60;;
6031;SDS011;3044;43.232;27.972;2023-02-15T11:25:29;18.03;;;10.20;;
6031;SDS011;3044;43.232;27.972;2023-02-15T11:27:57;12.50;;;9.73;;
6031;SDS011;3044;43.232;27.972;2023-02-15T11:30:28;11.33;;;9.03;;
6031;SDS011;3044;43.232;27.972;2023-02-15T11:32:59;19.13;;;10.10;;
6031;SDS011;3044;43.232;27.972;2023-02-15T11:35:31;12.83;;;10.63;;
6031;SDS011;3044;43.232;27.972;2023-02-15T11:38:06;12.07;;;9.50;;
6031;SDS011;3044;43.232;27.972;2023-02-15T11:40:40;16.07;;;10.17;;
6031;SDS011;3044;43.232;27.972;2023-02-15T11:43:13;17.53;;;9.97;;
6031;SDS011;3044;43.232;27.972;2023-02-15T11:45:46;10.57;;;9.03;;
6031;SDS011;3044;43.232;27.972;2023-02-15T11:48:13;14.07;;;10.30;;
6031;SDS011;3044;43.232;27.972;2023-02-15T11:50:44;17.43;;;10.43;;
6031;SDS011;3044;43.232;27.972;2023-02-15T11:53:12;14.83;;;9.93;;
6031;SDS011;3044;43.232;27.972;2023-02-15T11:55:42;14.93;;;9.87;;
6031;SDS011;3044;43.232;27.972;2023-02-15T11:58:14;11.17;;;9.63;;
6031;SDS011;3044;43.232;27.972;2023-02-15T12:00:49;10.50;;;8.93;;
6031;SDS011;3044;43.232;27.972;2023-02-15T12:03:21;11.60;;;8.93;;
6031;SDS011;3044;43.232;27.972;2023-02-15T12:05:56;13.43;;;10.37;;
6031;SDS011;3044;43.232;27.972;2023-02-15T12:08:26;14.50;;;10.77;;
6031;SDS011;3044;43.232;27.972;2023-02-15T12:11:05;25.43;;;10.33;;
6031;SDS011;3044;43.232;27.972;2023-02-15T12:13:37;13.57;;;10.00;;
6031;SDS011;3044;43.232;27.972;2023-02-15T12:16:21;13.27;;;9.73;;
6031;SDS011;3044;43.232;27.972;2023-02-15T12:18:48;16.73;;;9.70;;
6031;SDS011;3044;43.232;27.972;2023-02-15T12:21:25;20.10;;;11.50;;
6031;SDS011;3044;43.232;27.972;2023-02-15T12:23:56;13.43;;;10.03;;
6031;SDS011;3044;43.232;27.972;2023-02-15T12:26:25;12.83;;;9.17;;
6031;SDS011;3044;43.232;27.972;2023-02-15T12:28:54;15.40;;;9.93;;
6031;SDS011;3044;43.232;27.972;2023-02-15T12:31:27;17.43;;;10.17;;
6031;SDS011;3044;43.232;27.972;2023-02-15T12:33:59;14.30;;;10.03;;
6031;SDS011;3044;43.232;27.972;2023-02-15T12:36:31;13.77;;;10.50;;
6031;SDS011;3044;43.232;27.972;2023-02-15T12:39:19;14.17;;;10.80;;
6031;SDS011;3044;43.232;27.972;2023-02-15T12:41:58;13.90;;;10.60;;
6031;SDS011;3044;43.232;27.972;2023-02-15T12:44:29;13.57;;;10.67;;
6031;SDS011;3044;43.232;27.972;2023-02-15T12:46:59;17.53;;;11.07;;
6031;SDS011;3044;43.232;27.972;2023-02-15T12:49:27;13.50;;;10.00;;
6031;SDS011;3044;43.232;27.972;2023-02-15T12:51:57;20.27;;;11.47;;
6031;SDS011;3044;43.232;27.972;2023-02-15T12:54:30;14.33;;;10.27;;
6031;SDS011;3044;43.232;27.972;2023-02-15T12:57:19;14.17;;;10.30;;
6031;SDS011;3044;43.232;27.972;2023-02-15T12:59:50;16.10;;;10.40;;
6031;SDS011;3044;43.232;27.972;2023-02-15T13:02:26;17.60;;;10.87;;
6031;SDS011;3044;43.232;27.972;2023-02-15T13:04:55;16.80;;;10.70;;
6031;SDS011;3044;43.232;27.972;2023-02-15T13:07:29;14.63;;;11.60;;
6031;SDS011;3044;43.232;27.972;2023-02-15T13:09:58;20.00;;;12.30;;
6031;SDS011;3044;43.232;27.972;2023-02-15T13:12:26;21.80;;;13.50;;
6031;SDS011;3044;43.232;27.972;2023-02-15T13:14:56;15.87;;;10.97;;
6031;SDS011;3044;43.232;27.972;2023-02-15T13:17:25;14.53;;;10.90;;
6031;SDS011;3044;43.232;27.972;2023-02-15T13:19:56;15.93;;;11.63;;
6031;SDS011;3044;43.232;27.972;2023-02-15T13:22:31;13.70;;;10.93;;
6031;SDS011;3044;43.232;27.972;2023-02-15T13:25:10;19.40;;;12.70;;
6031;SDS011;3044;43.232;27.972;2023-02-15T13:27:41;16.60;;;12.17;;
6031;SDS011;3044;43.232;27.972;2023-02-15T13:30:16;16.57;;;11.87;;
6031;SDS011;3044;43.232;27.972;2023-02-15T13:32:48;16.80;;;12.60;;
6031;SDS011;3044;43.232;27.972;2023-02-15T13:35:18;18.70;;;12.23;;
6031;SDS011;3044;43.232;27.972;2023-02-15T13:38:01;17.03;;;11.57;;
6031;SDS011;3044;43.232;27.972;2023-02-15T13:40:33;22.20;;;12.00;;
6031;SDS011;3044;43.232;27.972;2023-02-15T13:43:12;20.57;;;12.20;;
6031;SDS011;3044;43.232;27.972;2023-02-15T13:45:51;17.83;;;12.20;;
6031;SDS011;3044;43.232;27.972;2023-02-15T13:48:30;16.00;;;12.37;;
6031;SDS011;3044;43.232;27.972;2023-02-15T13:51:08;17.17;;;12.63;;
6031;SDS011;3044;43.232;27.972;2023-02-15T13:56:39;22.23;;;12.70;;
6031;SDS011;3044;43.232;27.972;2023-02-15T13:59:20;17.53;;;12.93;;
6031;SDS011;3044;43.232;27.972;2023-02-15T14:02:04;19.10;;;12.60;;
6031;SDS011;3044;43.232;27.972;2023-02-15T14:05:01;16.27;;;13.40;;
6031;SDS011;3044;43.232;27.972;2023-02-15T14:07:53;23.20;;;12.80;;
6031;SDS011;3044;43.232;27.972;2023-02-15T14:10:34;18.23;;;12.40;;
6031;SDS011;3044;43.232;27.972;2023-02-15T14:13:23;17.47;;;12.70;;
6031;SDS011;3044;43.232;27.972;2023-02-15T14:16:06;18.80;;;11.87;;
6031;SDS011;3044;43.232;27.972;2023-02-15T14:18:41;15.77;;;11.20;;
6031;SDS011;3044;43.232;27.972;2023-02-15T14:21:13;15.60;;;11.57;;
6031;SDS011;3044;43.232;27.972;2023-02-15T14:23:48;17.50;;;11.40;;
6031;SDS011;3044;43.232;27.972;2023-02-15T14:26:29;15.67;;;11.33;;
6031;SDS011;3044;43.232;27.972;2023-02-15T14:29:08;21.60;;;12.30;;
6031;SDS011;3044;43.232;27.972;2023-02-15T14:31:45;23.17;;;11.80;;
6031;SDS011;3044;43.232;27.972;2023-02-15T14:34:18;15.50;;;10.90;;
6031;SDS011;3044;43.232;27.972;2023-02-15T14:36:49;16.10;;;12.17;;
6031;SDS011;3044;43.232;27.972;2023-02-15T14:39:22;11.90;;;8.93;;
6031;SDS011;3044;43.232;27.972;2023-02-15T14:42:14;14.17;;;9.97;;
6031;SDS011;3044;43.232;27.972;2023-02-15T14:44:48;10.93;;;8.93;;
6031;SDS011;3044;43.232;27.972;2023-02-15T14:47:25;14.50;;;9.10;;
6031;SDS011;3044;43.232;27.972;2023-02-15T14:49:57;14.10;;;9.30;;
6031;SDS011;3044;43.232;27.972;2023-02-15T14:52:24;24.33;;;10.57;;
6031;SDS011;3044;43.232;27.972;2023-02-15T14:54:59;14.73;;;10.30;;
6031;SDS011;3044;43.232;27.972;2023-02-15T14:57:29;13.80;;;8.80;;
6031;SDS011;3044;43.232;27.972;2023-02-15T14:59:59;14.17;;;9.87;;
6031;SDS011;3044;43.232;27.972;2023-02-15T15:02:40;15.27;;;9.90;;
6031;SDS011;3044;43.232;27.972;2023-02-15T15:05:14;19.97;;;10.50;;
6031;SDS011;3044;43.232;27.972;2023-02-15T15:07:46;20.67;;;10.93;;
6031;SDS011;3044;43.232;27.972;2023-02-15T15:18:51;14.70;;;9.73;;
6031;SDS011;3044;43.232;27.972;2023-02-15T15:30:12;14.83;;;11.30;;
6031;SDS011;3044;43.232;27.972;2023-02-15T15:42:48;17.40;;;12.20;;
6031;SDS011;3044;43.232;27.972;2023-02-15T15:45:28;18.80;;;12.00;;
6031;SDS011;3044;43.232;27.972;2023-02-15T15:48:22;17.97;;;12.20;;
6031;SDS011;3044;43.232;27.972;2023-02-15T15:50:59;18.37;;;12.00;;
6031;SDS011;3044;43.232;27.972;2023-02-15T15:53:29;21.60;;;12.83;;